Time;durP1;ratioP1;P1;durP2;ratioP2;P2;SDS_P1;SDS_P2;PMS_P1;PMS_P2;Temp;Humidity;BMP_temperature;BMP_pressure;BME280_temperature;BME280_humidity;BME280_pressure;Samples;Min_cycle;Max_cycle;Signal;HPM_P1;HPM_P2
2021/04/15 00:01:18;;;;;;;3.47;1.08;;;2.50;90.50;;;;;;4954587;29;20024;-66
2021/04/15 00:03:44;;;;;;;10.45;1.02;;;2.60;90.60;;;;;;4951347;28;20031;-66
2021/04/15 00:06:16;;;;;;;4.00;0.90;;;2.60;90.60;;;;;;4953662;29;20035;-66
2021/04/15 00:08:43;;;;;;;5.47;0.98;;;2.70;90.60;;;;;;4954171;29;20355;-66
2021/04/15 00:11:10;;;;;;;4.35;0.88;;;2.80;90.60;;;;;;4954529;29;20114;-66
2021/04/15 00:13:39;;;;;;;4.18;0.82;;;2.80;90.60;;;;;;4954368;29;20031;-66
2021/04/15 00:16:06;;;;;;;2.10;0.70;;;2.80;90.60;;;;;;4950678;28;20379;-66
2021/04/15 00:18:33;;;;;;;4.85;0.80;;;2.90;90.60;;;;;;4954250;28;20371;-66
2021/04/15 00:20:59;;;;;;;4.57;1.25;;;2.90;90.60;;;;;;4954930;28;20027;-66
2021/04/15 00:23:25;;;;;;;5.82;0.73;;;3.00;90.60;;;;;;4954016;28;20027;-66
2021/04/15 00:25:51;;;;;;;5.97;0.70;;;3.00;90.60;;;;;;4953110;29;20046;-66
2021/04/15 00:28:17;;;;;;;3.20;0.73;;;3.00;90.60;;;;;;4947302;28;20486;-66
2021/04/15 00:30:44;;;;;;;3.35;0.80;;;3.10;90.70;;;;;;4943783;29;20094;-66
2021/04/15 00:33:11;;;;;;;3.53;1.15;;;3.10;90.60;;;;;;4950901;28;20031;-66
2021/04/15 00:35:38;;;;;;;5.57;0.93;;;3.10;90.90;;;;;;4951569;28;20027;-66
2021/04/15 00:38:05;;;;;;;3.38;0.90;;;3.10;90.60;;;;;;4952564;28;20031;-66
2021/04/15 00:40:33;;;;;;;6.78;1.35;;;3.10;90.60;;;;;;4952037;29;20024;-66
2021/04/15 00:42:58;;;;;;;2.55;0.77;;;3.10;90.60;;;;;;4949467;28;20056;-66
2021/04/15 00:45:28;;;;;;;2.55;0.50;;;3.20;90.60;;;;;;4950583;29;20137;-66
2021/04/15 00:48:02;;;;;;;4.10;0.82;;;3.20;90.70;;;;;;4951730;28;20055;-66
2021/04/15 00:50:48;;;;;;;5.57;0.77;;;3.20;90.70;;;;;;4950202;29;20398;-66
2021/04/15 00:53:20;;;;;;;3.45;0.85;;;3.20;90.70;;;;;;4952423;28;20039;-66
2021/04/15 00:55:46;;;;;;;3.47;0.90;;;3.20;90.70;;;;;;4951745;29;20027;-66
2021/04/15 00:58:11;;;;;;;5.32;0.68;;;3.20;90.70;;;;;;4953567;28;20050;-66
2021/04/15 01:00:38;;;;;;;4.25;0.80;;;3.20;90.70;;;;;;4952763;29;20038;-66
2021/04/15 01:03:04;;;;;;;2.75;0.70;;;3.20;90.70;;;;;;4952139;28;20398;-66
2021/04/15 01:05:50;;;;;;;4.32;0.70;;;3.20;90.70;;;;;;4955300;28;20034;-66
2021/04/15 01:08:17;;;;;;;2.90;0.85;;;3.20;90.70;;;;;;4953504;28;20031;-67
2021/04/15 01:10:46;;;;;;;4.00;0.82;;;3.20;90.70;;;;;;4954037;28;20042;-67
2021/04/15 01:13:27;;;;;;;2.53;0.68;;;3.10;90.70;;;;;;4952872;28;20060;-65
2021/04/15 01:16:15;;;;;;;4.90;0.90;;;3.10;90.70;;;;;;4945168;29;20027;-66
2021/04/15 01:18:56;;;;;;;2.75;0.55;;;3.10;90.70;;;;;;4950227;29;20027;-66
2021/04/15 01:22:00;;;;;;;2.22;0.50;;;3.10;90.80;;;;;;4949231;29;20055;-66
2021/04/15 01:24:40;;;;;;;3.03;0.60;;;3.10;90.80;;;;;;4922013;29;20031;-67
2021/04/15 01:27:36;;;;;;;2.15;0.70;;;3.10;90.80;;;;;;4952746;28;20027;-64
2021/04/15 01:30:28;;;;;;;3.03;0.50;;;3.10;90.80;;;;;;4952027;29;20077;-66
2021/04/15 01:33:01;;;;;;;4.47;0.63;;;3.10;90.80;;;;;;4933512;29;20505;-66
2021/04/15 01:35:52;;;;;;;4.32;0.63;;;3.10;90.90;;;;;;4953716;29;20486;-66
2021/04/15 01:38:27;;;;;;;3.67;0.60;;;3.10;90.80;;;;;;4943692;29;20035;-67
2021/04/15 01:40:58;;;;;;;1.33;0.50;;;3.10;90.80;;;;;;4952407;28;20035;-67
2021/04/15 01:43:36;;;;;;;2.85;0.50;;;3.20;90.90;;;;;;4953385;29;20102;-66
2021/04/15 01:46:03;;;;;;;2.25;0.50;;;3.20;90.90;;;;;;4944014;29;20077;-66
2021/04/15 01:48:52;;;;;;;4.28;0.50;;;3.20;90.90;;;;;;4953473;28;20055;-64
2021/04/15 01:51:46;;;;;;;1.77;0.40;;;3.30;90.90;;;;;;4949483;29;20042;-66
2021/04/15 01:54:15;;;;;;;2.22;0.50;;;3.30;90.90;;;;;;4948506;28;20520;-66
2021/04/15 01:56:51;;;;;;;3.85;0.60;;;3.30;90.90;;;;;;4952351;29;20082;-64
2021/04/15 01:59:25;;;;;;;2.05;0.50;;;3.30;91.00;;;;;;4951054;29;20059;-64
2021/04/15 02:01:55;;;;;;;6.22;0.65;;;3.20;91.00;;;;;;4954119;28;20034;-64
2021/04/15 02:04:27;;;;;;;4.03;0.93;;;3.20;91.00;;;;;;4948892;29;20031;-64
2021/04/15 02:07:03;;;;;;;2.60;0.52;;;3.20;91.10;;;;;;4950469;29;20023;-64
2021/04/15 02:09:30;;;;;;;5.22;0.70;;;3.10;91.20;;;;;;4952303;28;20039;-66
2021/04/15 02:12:13;;;;;;;3.03;0.60;;;3.10;91.30;;;;;;4953107;28;20559;-66
2021/04/15 02:14:42;;;;;;;2.15;0.73;;;3.10;91.30;;;;;;4947273;29;20082;-64
2021/04/15 02:17:10;;;;;;;3.08;0.52;;;3.10;91.40;;;;;;4953621;28;20034;-65
2021/04/15 02:19:58;;;;;;;2.13;0.65;;;3.10;91.40;;;;;;4956382;28;20019;-65
2021/04/15 02:22:42;;;;;;;1.45;0.50;;;3.10;91.40;;;;;;4950585;29;20393;-66
2021/04/15 02:25:30;;;;;;;1.63;0.50;;;3.10;91.40;;;;;;4955397;28;20062;-66
2021/04/15 02:28:20;;;;;;;1.80;0.50;;;3.10;91.50;;;;;;4953769;28;20034;-66
2021/04/15 02:30:51;;;;;;;4.13;0.70;;;3.10;91.50;;;;;;4953606;29;20095;-66
2021/04/15 02:33:34;;;;;;;3.25;0.52;;;3.10;91.60;;;;;;4953880;29;20031;-66
2021/04/15 02:36:03;;;;;;;2.63;0.47;;;3.10;91.60;;;;;;4956939;29;20104;-65
2021/04/15 02:38:35;;;;;;;1.92;0.82;;;3.10;91.70;;;;;;4956650;28;20020;-66
2021/04/15 02:41:04;;;;;;;2.60;0.63;;;3.10;91.70;;;;;;4954639;29;20050;-66
2021/04/15 02:43:42;;;;;;;3.85;0.95;;;3.10;91.70;;;;;;4952080;29;20031;-66
2021/04/15 02:46:23;;;;;;;4.47;0.68;;;3.10;91.80;;;;;;4954921;28;20129;-66
2021/04/15 02:48:50;;;;;;;3.65;1.00;;;3.10;91.80;;;;;;4952720;29;20110;-65
2021/04/15 02:51:26;;;;;;;3.60;0.60;;;3.20;91.90;;;;;;4955223;29;20039;-66
2021/04/15 02:54:14;;;;;;;4.40;0.70;;;3.20;91.90;;;;;;4954015;28;20038;-64
2021/04/15 02:56:51;;;;;;;3.30;0.60;;;3.20;91.90;;;;;;4950538;29;20079;-66
2021/04/15 02:59:39;;;;;;;2.88;0.88;;;3.20;91.90;;;;;;4954021;29;20054;-66
2021/04/15 03:02:09;;;;;;;3.28;0.70;;;3.20;92.00;;;;;;4935881;28;20042;-64
2021/04/15 03:04:38;;;;;;;2.67;0.68;;;3.10;92.00;;;;;;4953710;29;20035;-64
2021/04/15 03:07:05;;;;;;;3.25;0.60;;;3.00;92.00;;;;;;4954541;29;20050;-64
2021/04/15 03:09:33;;;;;;;3.92;0.80;;;3.00;92.10;;;;;;4953495;28;20171;-64
2021/04/15 03:12:05;;;;;;;3.35;0.73;;;2.90;92.10;;;;;;4952665;29;20055;-64
2021/04/15 03:14:41;;;;;;;2.42;0.60;;;2.90;92.20;;;;;;4954215;28;20410;-64
2021/04/15 03:17:09;;;;;;;4.60;0.80;;;2.90;92.30;;;;;;4955311;28;20097;-66
2021/04/15 03:19:41;;;;;;;3.80;0.85;;;2.80;92.60;;;;;;4955112;28;20407;-66
2021/04/15 03:22:10;;;;;;;;;;;2.80;92.40;;;;;;4956504;29;20108;-66
2021/04/15 03:24:45;;;;;;;4.30;0.80;;;2.70;92.40;;;;;;4952382;29;19911;-66
2021/04/15 03:27:15;;;;;;;3.75;0.80;;;2.70;92.40;;;;;;4944388;29;20527;-66
2021/04/15 03:29:48;;;;;;;2.97;0.88;;;2.60;92.40;;;;;;4949424;28;20366;-66
2021/04/15 03:32:21;;;;;;;4.28;1.20;;;2.60;92.50;;;;;;4953811;29;20050;-66
2021/04/15 03:35:14;;;;;;;3.55;1.10;;;2.60;92.60;;;;;;4953969;28;20492;-66
2021/04/15 03:37:56;;;;;;;4.47;1.20;;;2.60;92.60;;;;;;4950585;29;20031;-64
2021/04/15 03:40:24;;;;;;;7.07;1.00;;;2.50;92.50;;;;;;4954914;29;20059;-66
2021/04/15 03:42:58;;;;;;;5.63;1.08;;;2.50;92.60;;;;;;4953748;28;20398;-66
2021/04/15 03:45:52;;;;;;;4.78;1.17;;;2.40;92.60;;;;;;4953263;29;20050;-66
2021/04/15 03:48:22;;;;;;;3.60;1.17;;;2.40;92.60;;;;;;4947114;28;20032;-66
2021/04/15 03:51:01;;;;;;;5.63;1.40;;;2.40;92.70;;;;;;4954359;29;20039;-65
2021/04/15 03:53:43;;;;;;;3.38;1.70;;;2.30;92.60;;;;;;4955994;29;20038;-66
2021/04/15 03:56:16;;;;;;;8.52;1.63;;;2.20;92.80;;;;;;4953352;29;20050;-66
2021/04/15 03:58:45;;;;;;;4.97;1.42;;;2.10;92.90;;;;;;4951927;29;20039;-66
2021/04/15 04:01:17;;;;;;;8.07;1.48;;;2.00;93.00;;;;;;4951471;29;20557;-66
2021/04/15 04:03:46;;;;;;;6.63;1.85;;;2.00;93.00;;;;;;4954559;28;20095;-66
2021/04/15 04:06:19;;;;;;;6.15;1.90;;;2.00;93.10;;;;;;4953789;28;20093;-66
2021/04/15 04:08:54;;;;;;;3.58;1.65;;;2.00;93.20;;;;;;4945749;28;20038;-66
2021/04/15 04:11:22;;;;;;;6.40;1.48;;;2.00;93.20;;;;;;4951446;29;20043;-66
2021/04/15 04:13:59;;;;;;;4.45;1.60;;;2.00;93.20;;;;;;4953689;29;20054;-66
2021/04/15 04:16:31;;;;;;;5.18;1.70;;;1.90;93.20;;;;;;4950916;29;20027;-66
2021/04/15 04:19:23;;;;;;;7.55;1.83;;;1.80;93.20;;;;;;4953958;29;20422;-66
2021/04/15 04:22:02;;;;;;;2.97;1.38;;;1.80;93.30;;;;;;4947971;29;20565;-66
2021/04/15 04:24:47;;;;;;;5.35;2.20;;;1.80;93.30;;;;;;4948764;28;20105;-64
2021/04/15 04:27:54;;;;;;;8.35;2.10;;;1.70;93.30;;;;;;4955063;28;20039;-66
2021/04/15 04:30:29;;;;;;;5.10;1.90;;;1.70;93.30;;;;;;4933138;29;20067;-66
2021/04/15 04:32:59;;;;;;;8.45;2.25;;;1.70;93.40;;;;;;4951444;28;20039;-66
2021/04/15 04:35:30;;;;;;;6.95;1.90;;;1.60;93.40;;;;;;4942533;29;20712;-66
2021/04/15 04:38:00;;;;;;;5.13;1.80;;;1.60;93.40;;;;;;4953802;28;20742;-66
2021/04/15 04:40:37;;;;;;;5.05;2.08;;;1.50;93.40;;;;;;4953511;28;20050;-66
2021/04/15 04:43:13;;;;;;;6.25;2.28;;;1.50;93.40;;;;;;4952785;28;20027;-66
2021/04/15 04:45:39;;;;;;;4.50;2.05;;;1.40;93.40;;;;;;4948781;29;20051;-67
2021/04/15 04:48:28;;;;;;;6.68;2.50;;;1.40;93.50;;;;;;4949885;29;20039;-66
2021/04/15 04:51:16;;;;;;;5.75;1.98;;;1.40;93.50;;;;;;4951407;29;20027;-66
2021/04/15 04:53:45;;;;;;;5.78;2.13;;;1.30;93.60;;;;;;4951554;29;20110;-65
2021/04/15 04:56:22;;;;;;;9.30;2.22;;;1.30;93.70;;;;;;4953569;28;20043;-66
2021/04/15 04:59:04;;;;;;;8.45;3.05;;;1.20;93.70;;;;;;4949130;29;20027;-65
2021/04/15 05:01:30;;;;;;;4.60;2.17;;;1.20;93.70;;;;;;4946516;29;20027;-65
2021/04/15 05:04:01;;;;;;;6.10;2.33;;;1.20;93.80;;;;;;4949749;28;20106;-65
2021/04/15 05:06:32;;;;;;;4.60;2.40;;;1.20;93.80;;;;;;4953140;28;20023;-65
2021/04/15 05:09:08;;;;;;;6.65;2.05;;;1.20;93.80;;;;;;4952665;28;20501;-65
2021/04/15 05:11:38;;;;;;;4.40;2.17;;;1.20;93.80;;;;;;4950670;29;20122;-65
2021/04/15 05:14:05;;;;;;;3.88;1.83;;;1.10;93.90;;;;;;4954194;28;20031;-66
2021/04/15 05:16:45;;;;;;;5.40;2.30;;;1.20;94.00;;;;;;4952886;28;20031;-66
2021/04/15 05:19:11;;;;;;;5.50;1.63;;;1.20;94.10;;;;;;4946403;29;20027;-65
2021/04/15 05:21:38;;;;;;;4.32;1.75;;;1.20;94.10;;;;;;4950576;28;20031;-65
2021/04/15 05:24:17;;;;;;;5.32;2.40;;;1.30;94.20;;;;;;4949487;28;20030;-65
2021/04/15 05:26:45;;;;;;;7.82;3.13;;;1.40;94.20;;;;;;4941192;29;20031;-66
2021/04/15 05:29:15;;;;;;;6.45;2.72;;;1.50;94.30;;;;;;4943366;29;20107;-66
2021/04/15 05:31:44;;;;;;;7.40;2.70;;;1.50;94.20;;;;;;4955277;28;20445;-67
2021/04/15 05:34:29;;;;;;;5.22;2.80;;;1.70;94.30;;;;;;4953195;29;20451;-66
2021/04/15 05:37:02;;;;;;;7.97;3.47;;;1.80;94.30;;;;;;4953801;28;20489;-66
2021/04/15 05:39:30;;;;;;;6.65;2.63;;;2.00;94.20;;;;;;4950340;29;20020;-66
2021/04/15 05:42:05;;;;;;;8.38;3.70;;;2.10;94.20;;;;;;4949981;28;20200;-66
2021/04/15 05:44:42;;;;;;;11.60;4.80;;;2.20;94.20;;;;;;4949182;28;20039;-66
2021/04/15 05:47:21;;;;;;;8.20;3.50;;;2.40;94.10;;;;;;4953455;28;20106;-66
2021/04/15 05:50:09;;;;;;;9.27;3.60;;;2.60;94.10;;;;;;4943946;29;20027;-66
2021/04/15 05:52:46;;;;;;;10.75;4.05;;;2.80;94.20;;;;;;4938461;29;20041;-66
2021/04/15 05:55:17;;;;;;;10.05;4.28;;;3.00;94.20;;;;;;4948284;29;20049;-66
2021/04/15 05:57:46;;;;;;;10.85;3.38;;;3.30;94.20;;;;;;4953758;28;20030;-66
2021/04/15 06:00:12;;;;;;;11.38;3.55;;;3.40;94.10;;;;;;4949231;28;20171;-66
2021/04/15 06:02:47;;;;;;;6.45;2.80;;;3.70;94.00;;;;;;4951699;29;20037;-66
2021/04/15 06:05:16;;;;;;;6.50;3.40;;;3.90;93.90;;;;;;4952196;28;20027;-66
2021/04/15 06:07:43;;;;;;;10.02;3.53;;;4.10;93.70;;;;;;4953246;29;20027;-66
2021/04/15 06:10:12;;;;;;;8.00;3.22;;;4.30;93.60;;;;;;4952408;28;20119;-66
2021/04/15 06:12:48;;;;;;;6.78;3.03;;;4.40;93.40;;;;;;4953270;28;20508;-66
2021/04/15 06:15:42;;;;;;;8.77;3.38;;;4.50;93.10;;;;;;4953194;29;20523;-66
2021/04/15 06:18:28;;;;;;;5.55;2.78;;;4.60;93.10;;;;;;4953555;28;20066;-65
2021/04/15 06:21:02;;;;;;;7.05;2.58;;;4.80;92.90;;;;;;4949120;29;20016;-66
2021/04/15 06:23:41;;;;;;;7.40;2.63;;;4.80;92.70;;;;;;4939430;29;20034;-66
2021/04/15 06:26:13;;;;;;;8.98;2.78;;;4.80;92.70;;;;;;4941575;29;20097;-66
2021/04/15 06:28:42;;;;;;;5.43;2.60;;;4.80;92.60;;;;;;4953431;28;20166;-66
2021/04/15 06:31:17;;;;;;;5.22;2.35;;;4.90;92.70;;;;;;4947527;28;20067;-66
2021/04/15 06:33:44;;;;;;;7.78;3.05;;;5.00;92.70;;;;;;4944411;28;20505;-66
2021/04/15 06:36:22;;;;;;;8.32;4.45;;;5.00;92.70;;;;;;4948810;28;20078;-66
2021/04/15 06:39:12;;;;;;;7.53;2.60;;;5.20;92.50;;;;;;4952673;28;20601;-65
2021/04/15 06:41:51;;;;;;;8.82;2.70;;;5.30;92.40;;;;;;4953293;28;20031;-66
2021/04/15 06:44:43;;;;;;;6.60;2.55;;;5.30;92.30;;;;;;4954251;28;20097;-66
2021/04/15 06:47:28;;;;;;;6.85;2.97;;;5.30;92.00;;;;;;4953362;28;20398;-66
2021/04/15 06:50:32;;;;;;;10.40;3.33;;;5.30;91.80;;;;;;4953247;29;20124;-68
2021/04/15 06:53:21;;;;;;;6.28;2.13;;;5.30;91.90;;;;;;4947347;28;20039;-67
2021/04/15 06:56:11;;;;;;;11.38;2.40;;;5.40;91.90;;;;;;4953506;29;20490;-66
2021/04/15 06:59:28;;;;;;;7.43;2.25;;;5.40;91.50;;;;;;4946845;29;20035;-70
2021/04/15 07:02:26;;;;;;;6.20;2.30;;;5.40;91.30;;;;;;4921021;29;20043;-71
2021/04/15 07:04:57;;;;;;;7.25;2.33;;;5.40;91.40;;;;;;4953512;29;20035;-67
2021/04/15 07:07:28;;;;;;;9.73;1.95;;;5.40;91.50;;;;;;4956086;28;20178;-65
2021/04/15 07:10:29;;;;;;;4.30;1.20;;;5.50;91.60;;;;;;4956526;28;20042;-66
2021/04/15 07:13:24;;;;;;;4.07;1.08;;;5.60;91.60;;;;;;4955551;28;20027;-66
2021/04/15 07:16:09;;;;;;;7.70;1.30;;;5.70;91.40;;;;;;4954714;29;20027;-65
2021/04/15 07:18:57;;;;;;;5.95;0.98;;;5.70;91.10;;;;;;4955758;28;20027;-65
2021/04/15 07:21:57;;;;;;;6.40;1.52;;;5.70;90.80;;;;;;4956537;28;20035;-65
2021/04/15 07:24:28;;;;;;;4.70;1.33;;;5.70;90.70;;;;;;4949086;29;20113;-65
2021/04/15 07:27:06;;;;;;;4.63;1.13;;;5.60;90.80;;;;;;4956008;29;20027;-65
2021/04/15 07:29:57;;;;;;;3.05;1.10;;;5.60;90.90;;;;;;4956436;28;20367;-65
2021/04/15 07:32:44;;;;;;;4.93;1.00;;;5.70;90.90;;;;;;4955481;28;20397;-65
2021/04/15 07:35:46;;;;;;;3.05;0.90;;;5.70;91.00;;;;;;4956195;28;20050;-65
2021/04/15 07:38:26;;;;;;;3.63;1.13;;;5.70;90.70;;;;;;4956378;28;20481;-65
2021/04/15 07:41:13;;;;;;;6.32;1.80;;;5.70;90.60;;;;;;4938032;29;20138;-65
2021/04/15 07:43:59;;;;;;;5.72;1.00;;;5.80;90.60;;;;;;4951850;29;20023;-65
2021/04/15 07:46:40;;;;;;;3.85;0.98;;;5.90;90.40;;;;;;4956243;29;20505;-66
2021/04/15 07:49:24;;;;;;;2.70;0.82;;;5.90;90.20;;;;;;4948799;29;20035;-65
2021/04/15 07:52:14;;;;;;;5.60;1.05;;;6.00;90.30;;;;;;4956907;29;20027;-65
2021/04/15 07:55:04;;;;;;;4.82;1.15;;;6.10;90.10;;;;;;4955777;29;20041;-65
2021/04/15 07:57:42;;;;;;;3.53;1.02;;;6.40;90.10;;;;;;4956500;28;20051;-65
2021/04/15 08:00:32;;;;;;;6.60;1.33;;;6.60;89.00;;;;;;4955074;29;20031;-65
2021/04/15 08:03:32;;;;;;;5.32;1.88;;;6.80;86.90;;;;;;4955235;29;20385;-65
2021/04/15 08:06:33;;;;;;;3.85;1.20;;;7.00;87.20;;;;;;4937762;29;20490;-66
2021/04/15 08:09:18;;;;;;;4.65;1.50;;;7.30;87.10;;;;;;4955634;29;20501;-66
2021/04/15 08:11:52;;;;;;;6.57;1.30;;;7.50;85.90;;;;;;4955612;29;20059;-66
2021/04/15 08:14:30;;;;;;;4.07;0.70;;;7.60;85.50;;;;;;4952400;28;20486;-66
2021/04/15 08:17:32;;;;;;;3.53;0.70;;;7.50;84.30;;;;;;4955484;29;20497;-66
2021/04/15 08:20:44;;;;;;;4.97;0.98;;;7.50;84.80;;;;;;4924256;29;20533;-66
2021/04/15 08:23:28;;;;;;;2.65;0.75;;;7.80;85.20;;;;;;4954756;28;20034;-66
2021/04/15 08:26:27;;;;;;;2.85;0.77;;;8.10;83.50;;;;;;4947452;29;20119;-66
2021/04/15 08:29:19;;;;;;;6.28;0.60;;;8.10;80.50;;;;;;4954358;29;20490;-66
2021/04/15 08:32:11;;;;;;;4.47;0.90;;;7.90;79.10;;;;;;4955530;28;20065;-66
2021/04/15 08:34:57;;;;;;;2.50;0.70;;;7.70;79.50;;;;;;4955025;28;20034;-66
2021/04/15 08:37:50;;;;;;;5.75;0.85;;;7.60;80.40;;;;;;4955656;28;20046;-66
2021/04/15 08:40:26;;;;;;;2.90;0.80;;;7.60;80.80;;;;;;4954668;29;20493;-66
2021/04/15 08:43:10;;;;;;;6.05;1.42;;;7.70;80.60;;;;;;4955109;28;20032;-67
2021/04/15 08:45:43;;;;;;;2.03;0.60;;;7.90;80.60;;;;;;4954928;28;20054;-66
2021/04/15 08:48:22;;;;;;;;;;;8.00;79.80;;;;;;4955860;28;20047;-66
2021/04/15 08:51:16;;;;;;;5.35;0.90;;;8.10;79.00;;;;;;4954530;29;20348;-65
2021/04/15 08:54:12;;;;;;;3.10;0.85;;;8.20;77.60;;;;;;4953884;28;20063;-65
2021/04/15 08:56:48;;;;;;;4.28;0.90;;;8.30;76.40;;;;;;4955713;29;20035;-66
2021/04/15 08:59:29;;;;;;;3.55;1.02;;;8.20;74.40;;;;;;4955188;28;20094;-66
2021/04/15 09:02:18;;;;;;;2.20;0.77;;;8.10;74.60;;;;;;4952762;29;20030;-66
2021/04/15 09:05:05;;;;;;;7.30;1.15;;;8.10;73.90;;;;;;4954835;28;20057;-66
2021/04/15 09:07:47;;;;;;;2.95;0.63;;;8.10;75.10;;;;;;4954406;29;20055;-66
2021/04/15 09:10:27;;;;;;;2.78;0.75;;;8.30;75.00;;;;;;4952786;28;20113;-66
2021/04/15 09:13:10;;;;;;;3.90;0.95;;;8.30;73.60;;;;;;4955232;28;20036;-66
2021/04/15 09:16:05;;;;;;;5.63;1.40;;;8.10;73.70;;;;;;4953533;28;20051;-66
2021/04/15 09:18:46;;;;;;;3.15;1.25;;;7.90;74.10;;;;;;4953351;29;20114;-66
2021/04/15 09:21:47;;;;;;;6.68;1.27;;;7.80;74.80;;;;;;4936463;29;20034;-66
2021/04/15 09:24:30;;;;;;;3.38;1.17;;;7.80;75.10;;;;;;4943403;29;20050;-67
2021/04/15 09:27:25;;;;;;;4.45;1.30;;;7.80;74.60;;;;;;4951889;28;20167;-66
2021/04/15 09:30:48;;;;;;;4.80;1.00;;;7.70;74.20;;;;;;4929113;28;20044;-65
2021/04/15 09:33:39;;;;;;;3.13;1.08;;;7.60;74.70;;;;;;4913733;29;20367;-65
2021/04/15 09:36:19;;;;;;;4.72;0.70;;;7.60;74.50;;;;;;4898393;29;20036;-65
2021/04/15 09:38:47;;;;;;;4.38;1.25;;;7.60;74.40;;;;;;4942320;28;20555;-65
2021/04/15 09:41:37;;;;;;;6.28;0.82;;;7.70;74.80;;;;;;4955185;28;20087;-65
2021/04/15 09:44:06;;;;;;;4.13;1.13;;;7.90;75.30;;;;;;4954366;29;20047;-65
2021/04/15 09:46:45;;;;;;;3.50;0.80;;;8.20;73.30;;;;;;4954278;29;20504;-65
2021/04/15 09:49:42;;;;;;;3.42;0.95;;;8.30;72.00;;;;;;4954247;29;20035;-66
2021/04/15 09:52:35;;;;;;;1.13;0.40;;;8.50;71.50;;;;;;4953938;28;20031;-67
2021/04/15 09:55:22;;;;;;;3.38;0.50;;;8.40;69.20;;;;;;4954220;29;20058;-65
2021/04/15 09:58:26;;;;;;;3.55;0.60;;;8.30;68.50;;;;;;4952238;28;20090;-65
2021/04/15 10:00:57;;;;;;;2.25;0.50;;;8.30;68.70;;;;;;4954077;28;20034;-65
2021/04/15 10:03:42;;;;;;;5.10;1.65;;;8.40;69.10;;;;;;4954895;28;20083;-65
2021/04/15 10:06:22;;;;;;;1.65;0.52;;;8.50;69.40;;;;;;4954771;28;20482;-65
2021/04/15 10:08:57;;;;;;;3.47;0.60;;;8.50;67.70;;;;;;4948503;28;20036;-66
2021/04/15 10:11:49;;;;;;;2.85;0.50;;;8.50;68.10;;;;;;4944375;29;20027;-65
2021/04/15 10:14:52;;;;;;;2.13;0.50;;;8.50;67.80;;;;;;4946555;29;20059;-65
2021/04/15 10:17:21;;;;;;;2.08;0.60;;;8.70;68.10;;;;;;4954589;28;20031;-66
2021/04/15 10:20:16;;;;;;;5.90;0.63;;;8.80;68.30;;;;;;4952720;29;20023;-65
2021/04/15 10:23:19;;;;;;;3.42;0.52;;;8.80;66.60;;;;;;4954874;28;20027;-65
2021/04/15 10:26:02;;;;;;;2.17;0.50;;;8.70;66.30;;;;;;4953578;29;20054;-66
2021/04/15 10:29:04;;;;;;;3.17;0.50;;;8.70;66.70;;;;;;4954645;29;20023;-66
2021/04/15 10:31:57;;;;;;;1.40;0.38;;;8.70;67.10;;;;;;4954406;29;20078;-66
2021/04/15 10:34:38;;;;;;;2.63;0.30;;;8.80;65.40;;;;;;4953054;28;20039;-66
2021/04/15 10:37:33;;;;;;;1.67;0.40;;;8.80;64.60;;;;;;4952382;29;20386;-66
2021/04/15 10:40:29;;;;;;;1.95;0.50;;;8.90;65.00;;;;;;4947322;29;20050;-67
2021/04/15 10:43:34;;;;;;;0.90;0.30;;;9.10;64.90;;;;;;4957111;28;20039;-66
2021/04/15 10:46:21;;;;;;;2.65;0.40;;;9.20;63.70;;;;;;4960601;28;20098;-66
2021/04/15 10:49:06;;;;;;;2.60;0.50;;;9.40;65.10;;;;;;4949537;28;20027;-66
2021/04/15 10:51:44;;;;;;;1.38;0.50;;;9.70;63.50;;;;;;4947199;29;20477;-66
2021/04/15 10:54:40;;;;;;;1.88;0.40;;;9.70;63.60;;;;;;4958016;29;20055;-67
2021/04/15 10:57:28;;;;;;;2.22;0.40;;;9.70;62.40;;;;;;4954338;29;20027;-67
2021/04/15 10:59:54;;;;;;;3.70;0.57;;;9.50;61.90;;;;;;4941089;29;20051;-66
2021/04/15 11:02:32;;;;;;;1.83;0.47;;;9.50;62.40;;;;;;4955373;28;20021;-67
2021/04/15 11:05:22;;;;;;;1.88;0.40;;;9.50;62.10;;;;;;4954491;29;20031;-66
2021/04/15 11:07:50;;;;;;;2.85;0.40;;;9.60;62.50;;;;;;4948546;29;20032;-67
2021/04/15 11:10:29;;;;;;;2.20;0.60;;;9.60;61.10;;;;;;4957400;29;20039;-66
2021/04/15 11:13:22;;;;;;;5.05;0.55;;;9.50;60.10;;;;;;4948313;29;20035;-67
2021/04/15 11:15:57;;;;;;;1.60;0.50;;;9.70;60.90;;;;;;4952928;28;20528;-67
2021/04/15 11:18:27;;;;;;;1.30;0.52;;;9.80;60.00;;;;;;4956717;29;20038;-66
2021/04/15 11:21:10;;;;;;;2.78;0.47;;;9.70;60.30;;;;;;4957737;28;20031;-66
2021/04/15 11:23:35;;;;;;;1.60;0.40;;;9.80;61.10;;;;;;4949076;29;20067;-66
2021/04/15 11:26:43;;;;;;;1.40;0.30;;;10.00;61.10;;;;;;4946363;29;20109;-66
2021/04/15 11:29:24;;;;;;;1.52;0.30;;;10.30;61.00;;;;;;4948507;29;20142;-66
2021/04/15 11:31:51;;;;;;;1.15;0.40;;;10.70;60.20;;;;;;4945796;28;20165;-66
2021/04/15 11:34:34;;;;;;;2.75;0.40;;;11.00;58.90;;;;;;4956528;28;20482;-66
2021/04/15 11:37:04;;;;;;;1.25;0.30;;;10.90;57.60;;;;;;4957072;28;20462;-66
2021/04/15 11:39:36;;;;;;;2.03;0.35;;;10.80;57.70;;;;;;4957309;28;20367;-66
2021/04/15 11:42:09;;;;;;;1.58;0.20;;;10.60;57.60;;;;;;4955135;28;20031;-66
2021/04/15 11:44:44;;;;;;;2.20;0.40;;;10.30;57.80;;;;;;4956519;28;20059;-66
2021/04/15 11:47:19;;;;;;;1.02;0.30;;;10.10;57.40;;;;;;4955721;28;20355;-66
2021/04/15 11:49:45;;;;;;;1.20;0.30;;;10.10;58.50;;;;;;4955895;28;20067;-66
2021/04/15 11:52:11;;;;;;;1.55;0.40;;;10.10;58.40;;;;;;4957127;28;20438;-66
2021/04/15 11:54:43;;;;;;;2.03;0.40;;;10.00;58.20;;;;;;4956860;28;20078;-66
2021/04/15 11:57:20;;;;;;;;;;;10.00;58.00;;;;;;4953932;29;20031;-66
2021/04/15 11:59:59;;;;;;;1.02;0.40;;;10.00;58.40;;;;;;4950732;28;19915;-67
2021/04/15 12:02:41;;;;;;;1.67;0.75;;;10.10;58.60;;;;;;4952535;29;20019;-66
2021/04/15 12:05:30;;;;;;;1.58;0.43;;;10.10;58.60;;;;;;4953333;29;20031;-66
2021/04/15 12:08:22;;;;;;;0.80;0.30;;;10.30;58.70;;;;;;4943713;29;20119;-66
2021/04/15 12:11:00;;;;;;;2.92;0.40;;;10.40;57.30;;;;;;4946174;29;20028;-66
2021/04/15 12:13:32;;;;;;;1.08;0.40;;;10.60;57.40;;;;;;4950612;29;20059;-66
2021/04/15 12:16:17;;;;;;;3.22;0.40;;;10.90;57.30;;;;;;4954162;28;20031;-67
2021/04/15 12:19:16;;;;;;;2.88;0.50;;;10.90;55.20;;;;;;4954256;29;20110;-66
2021/04/15 12:21:50;;;;;;;2.33;0.40;;;10.70;55.40;;;;;;4951048;29;20029;-66
2021/04/15 12:24:36;;;;;;;2.45;0.40;;;10.60;56.30;;;;;;4954091;28;20024;-66
2021/04/15 12:27:06;;;;;;;1.23;0.60;;;10.60;56.40;;;;;;4955682;28;20031;-66
2021/04/15 12:29:46;;;;;;;1.17;0.30;;;10.60;56.20;;;;;;4955505;28;20066;-66
2021/04/15 12:32:33;;;;;;;1.13;0.30;;;10.70;54.70;;;;;;4951067;29;20545;-66
2021/04/15 12:35:15;;;;;;;0.90;0.50;;;10.70;54.50;;;;;;4956345;28;20027;-66
2021/04/15 12:38:05;;;;;;;1.13;0.30;;;10.80;53.60;;;;;;4955405;28;20181;-66
2021/04/15 12:40:35;;;;;;;2.17;0.32;;;10.90;54.00;;;;;;4952446;29;20173;-66
2021/04/15 12:43:32;;;;;;;2.75;0.50;;;11.10;53.80;;;;;;4944911;28;20429;-67
2021/04/15 12:45:59;;;;;;;1.85;0.93;;;11.30;52.70;;;;;;4950971;29;20528;-67
2021/04/15 12:48:40;;;;;;;1.52;0.50;;;11.60;52.70;;;;;;4952845;29;20453;-67
2021/04/15 12:51:08;;;;;;;1.40;0.50;;;11.50;49.70;;;;;;4952223;29;20102;-66
2021/04/15 12:53:37;;;;;;;2.30;0.60;;;11.30;50.70;;;;;;4954500;28;20023;-66
2021/04/15 12:56:04;;;;;;;1.15;0.50;;;11.30;50.40;;;;;;4953642;28;20070;-66
2021/04/15 12:58:30;;;;;;;2.72;0.52;;;11.40;51.30;;;;;;4952110;28;20028;-66
2021/04/15 13:00:58;;;;;;;1.88;0.40;;;11.70;51.60;;;;;;4951191;28;20024;-66
2021/04/15 13:03:34;;;;;;;1.85;0.60;;;12.10;51.30;;;;;;4951047;28;20028;-66
2021/04/15 13:06:02;;;;;;;2.75;0.70;;;12.30;49.70;;;;;;4950305;29;20086;-66
2021/04/15 13:08:41;;;;;;;1.30;0.40;;;12.30;49.40;;;;;;4953428;28;20035;-66
2021/04/15 13:11:19;;;;;;;3.03;0.50;;;12.30;49.30;;;;;;4947833;28;20508;-66
2021/04/15 13:13:47;;;;;;;2.63;0.73;;;12.40;48.40;;;;;;4950571;28;20043;-66
2021/04/15 13:16:31;;;;;;;3.13;0.68;;;12.20;48.00;;;;;;4953214;29;20031;-66
2021/04/15 13:18:58;;;;;;;2.03;0.75;;;11.80;47.20;;;;;;4938362;29;20031;-66
2021/04/15 13:21:33;;;;;;;1.17;0.52;;;11.60;48.50;;;;;;4954012;29;20032;-66
2021/04/15 13:23:59;;;;;;;2.63;0.50;;;11.50;48.70;;;;;;4951281;29;20082;-66
2021/04/15 13:26:36;;;;;;;2.00;0.50;;;11.60;49.10;;;;;;4944613;29;20061;-66
2021/04/15 13:29:19;;;;;;;1.85;0.50;;;11.80;48.00;;;;;;4950492;29;20031;-66
2021/04/15 13:31:57;;;;;;;1.98;0.60;;;11.70;47.20;;;;;;4964572;28;20031;-66
2021/04/15 13:34:27;;;;;;;2.40;0.68;;;11.70;46.90;;;;;;4947347;29;20069;-66
2021/04/15 13:37:30;;;;;;;3.83;0.77;;;11.70;46.70;;;;;;4948709;28;20054;-66
2021/04/15 13:40:16;;;;;;;;;;;11.60;46.40;;;;;;4949690;29;20390;-66
2021/04/15 13:42:42;;;;;;;2.42;0.60;;;11.40;46.70;;;;;;4939021;28;20401;-67
2021/04/15 13:45:29;;;;;;;2.00;0.50;;;11.40;47.10;;;;;;4954576;28;20137;-67
2021/04/15 13:47:56;;;;;;;3.58;0.63;;;11.40;47.40;;;;;;4948646;29;20031;-66
2021/04/15 13:51:00;;;;;;;3.13;0.60;;;11.10;47.50;;;;;;4953097;28;20053;-67
2021/04/15 13:53:46;;;;;;;2.92;1.20;;;11.00;48.00;;;;;;4950057;28;20056;-67
2021/04/15 13:56:28;;;;;;;2.97;1.15;;;10.90;48.80;;;;;;4953875;28;20064;-68
2021/04/15 13:58:54;;;;;;;2.60;0.77;;;10.80;49.20;;;;;;4950449;29;20113;-65